sensor_id;sensor_type;location;lat;lon;timestamp;temperature;humidity
10660;DHT22;5378;53.206;13.316;2023-03-23T00:02:39;11.40;99.90
10660;DHT22;5378;53.206;13.316;2023-03-23T00:05:25;11.20;99.90
10660;DHT22;5378;53.206;13.316;2023-03-23T00:08:15;11.10;99.90
10660;DHT22;5378;53.206;13.316;2023-03-23T00:11:01;11.00;99.90
10660;DHT22;5378;53.206;13.316;2023-03-23T00:13:50;10.90;99.90
10660;DHT22;5378;53.206;13.316;2023-03-23T00:16:36;11.00;99.90
10660;DHT22;5378;53.206;13.316;2023-03-23T00:19:24;11.00;99.90
10660;DHT22;5378;53.206;13.316;2023-03-23T00:22:10;11.10;99.90
10660;DHT22;5378;53.206;13.316;2023-03-23T00:24:58;11.20;99.90
10660;DHT22;5378;53.206;13.316;2023-03-23T00:27:44;11.20;99.90
10660;DHT22;5378;53.206;13.316;2023-03-23T00:30:30;11.20;99.90
10660;DHT22;5378;53.206;13.316;2023-03-23T00:33:17;11.10;99.90
10660;DHT22;5378;53.206;13.316;2023-03-23T00:36:04;11.10;99.90
10660;DHT22;5378;53.206;13.316;2023-03-23T00:38:54;11.00;99.90
10660;DHT22;5378;53.206;13.316;2023-03-23T00:41:44;10.80;99.90
10660;DHT22;5378;53.206;13.316;2023-03-23T00:44:32;10.70;99.90
10660;DHT22;5378;53.206;13.316;2023-03-23T00:47:19;10.50;99.90
10660;DHT22;5378;53.206;13.316;2023-03-23T00:50:06;10.40;99.90
10660;DHT22;5378;53.206;13.316;2023-03-23T00:52:52;10.40;99.90
10660;DHT22;5378;53.206;13.316;2023-03-23T00:55:41;10.40;99.90
10660;DHT22;5378;53.206;13.316;2023-03-23T00:58:30;10.40;99.90
10660;DHT22;5378;53.206;13.316;2023-03-23T01:01:16;10.40;99.90
10660;DHT22;5378;53.206;13.316;2023-03-23T01:04:03;10.30;99.90
10660;DHT22;5378;53.206;13.316;2023-03-23T01:06:50;10.30;99.90
10660;DHT22;5378;53.206;13.316;2023-03-23T01:09:36;10.40;99.90
10660;DHT22;5378;53.206;13.316;2023-03-23T01:12:24;10.40;99.90
10660;DHT22;5378;53.206;13.316;2023-03-23T01:15:15;10.50;99.90
10660;DHT22;5378;53.206;13.316;2023-03-23T01:18:02;10.50;99.90
10660;DHT22;5378;53.206;13.316;2023-03-23T01:20:48;10.70;99.90
10660;DHT22;5378;53.206;13.316;2023-03-23T01:23:34;10.80;99.90
10660;DHT22;5378;53.206;13.316;2023-03-23T01:26:23;10.80;99.90
10660;DHT22;5378;53.206;13.316;2023-03-23T01:29:10;10.80;99.90
10660;DHT22;5378;53.206;13.316;2023-03-23T01:31:58;10.80;99.90
10660;DHT22;5378;53.206;13.316;2023-03-23T01:34:43;10.80;99.90
10660;DHT22;5378;53.206;13.316;2023-03-23T01:37:30;10.90;99.90
10660;DHT22;5378;53.206;13.316;2023-03-23T01:40:17;11.00;99.90
10660;DHT22;5378;53.206;13.316;2023-03-23T01:43:09;11.00;99.90
10660;DHT22;5378;53.206;13.316;2023-03-23T01:45:58;11.10;99.90
10660;DHT22;5378;53.206;13.316;2023-03-23T01:48:45;10.90;99.90
10660;DHT22;5378;53.206;13.316;2023-03-23T01:51:31;11.10;99.90
10660;DHT22;5378;53.206;13.316;2023-03-23T01:54:19;11.20;99.90
10660;DHT22;5378;53.206;13.316;2023-03-23T01:57:10;11.30;99.90
10660;DHT22;5378;53.206;13.316;2023-03-23T02:00:03;11.40;99.90
10660;DHT22;5378;53.206;13.316;2023-03-23T02:03:11;11.40;99.90
10660;DHT22;5378;53.206;13.316;2023-03-23T02:05:59;11.60;99.90
10660;DHT22;5378;53.206;13.316;2023-03-23T02:08:57;11.60;99.90
10660;DHT22;5378;53.206;13.316;2023-03-23T02:11:43;11.70;99.90
10660;DHT22;5378;53.206;13.316;2023-03-23T02:14:30;11.70;99.90
10660;DHT22;5378;53.206;13.316;2023-03-23T02:17:24;11.80;99.90
10660;DHT22;5378;53.206;13.316;2023-03-23T02:20:29;11.70;99.90
10660;DHT22;5378;53.206;13.316;2023-03-23T02:23:40;11.70;99.90
10660;DHT22;5378;53.206;13.316;2023-03-23T02:26:46;11.70;99.90
10660;DHT22;5378;53.206;13.316;2023-03-23T02:29:56;11.60;99.90
10660;DHT22;5378;53.206;13.316;2023-03-23T02:36:10;11.40;99.90
10660;DHT22;5378;53.206;13.316;2023-03-23T02:39:00;11.30;99.90
10660;DHT22;5378;53.206;13.316;2023-03-23T02:41:53;11.30;99.90
10660;DHT22;5378;53.206;13.316;2023-03-23T02:44:43;11.30;99.90
10660;DHT22;5378;53.206;13.316;2023-03-23T02:47:30;11.30;99.90
10660;DHT22;5378;53.206;13.316;2023-03-23T02:50:20;11.30;99.90
10660;DHT22;5378;53.206;13.316;2023-03-23T02:53:10;11.30;99.90
10660;DHT22;5378;53.206;13.316;2023-03-23T02:55:57;11.30;99.90
10660;DHT22;5378;53.206;13.316;2023-03-23T02:58:48;11.30;99.90
10660;DHT22;5378;53.206;13.316;2023-03-23T03:01:57;11.30;99.90
10660;DHT22;5378;53.206;13.316;2023-03-23T03:04:47;11.20;99.90
10660;DHT22;5378;53.206;13.316;2023-03-23T03:07:52;11.20;99.90
10660;DHT22;5378;53.206;13.316;2023-03-23T03:10:48;11.20;99.90
10660;DHT22;5378;53.206;13.316;2023-03-23T03:13:45;11.20;99.90
10660;DHT22;5378;53.206;13.316;2023-03-23T03:16:36;11.30;99.90
10660;DHT22;5378;53.206;13.316;2023-03-23T03:19:26;11.30;99.90
10660;DHT22;5378;53.206;13.316;2023-03-23T03:22:13;11.30;99.90
10660;DHT22;5378;53.206;13.316;2023-03-23T03:25:00;11.30;99.90
10660;DHT22;5378;53.206;13.316;2023-03-23T03:27:49;11.30;99.90
10660;DHT22;5378;53.206;13.316;2023-03-23T03:30:47;11.30;99.90
10660;DHT22;5378;53.206;13.316;2023-03-23T03:33:34;11.20;99.90
10660;DHT22;5378;53.206;13.316;2023-03-23T03:36:23;11.20;99.90
10660;DHT22;5378;53.206;13.316;2023-03-23T03:39:10;11.10;99.90
10660;DHT22;5378;53.206;13.316;2023-03-23T03:41:57;11.10;99.90
10660;DHT22;5378;53.206;13.316;2023-03-23T03:44:44;11.10;99.90
10660;DHT22;5378;53.206;13.316;2023-03-23T03:47:30;11.10;99.90
10660;DHT22;5378;53.206;13.316;2023-03-23T03:50:16;11.10;99.90
10660;DHT22;5378;53.206;13.316;2023-03-23T03:53:02;11.10;99.90
10660;DHT22;5378;53.206;13.316;2023-03-23T03:55:49;11.10;99.90
10660;DHT22;5378;53.206;13.316;2023-03-23T03:58:36;11.30;99.90
10660;DHT22;5378;53.206;13.316;2023-03-23T04:01:49;11.20;99.90
10660;DHT22;5378;53.206;13.316;2023-03-23T04:04:38;11.20;99.90
10660;DHT22;5378;53.206;13.316;2023-03-23T04:07:25;11.20;99.90
10660;DHT22;5378;53.206;13.316;2023-03-23T04:10:14;11.20;99.90
10660;DHT22;5378;53.206;13.316;2023-03-23T04:13:03;11.20;99.90
10660;DHT22;5378;53.206;13.316;2023-03-23T04:15:52;11.20;99.90
10660;DHT22;5378;53.206;13.316;2023-03-23T04:18:40;11.20;99.90
10660;DHT22;5378;53.206;13.316;2023-03-23T04:21:28;11.20;99.90
10660;DHT22;5378;53.206;13.316;2023-03-23T04:24:14;11.20;99.90
10660;DHT22;5378;53.206;13.316;2023-03-23T04:27:00;11.20;99.90
10660;DHT22;5378;53.206;13.316;2023-03-23T04:29:48;11.20;99.90
10660;DHT22;5378;53.206;13.316;2023-03-23T04:32:53;11.20;99.90
10660;DHT22;5378;53.206;13.316;2023-03-23T04:35:45;11.20;99.90
10660;DHT22;5378;53.206;13.316;2023-03-23T04:38:39;11.20;99.90
10660;DHT22;5378;53.206;13.316;2023-03-23T04:41:32;11.20;99.90
10660;DHT22;5378;53.206;13.316;2023-03-23T04:44:28;11.10;99.90
10660;DHT22;5378;53.206;13.316;2023-03-23T04:47:33;11.10;99.90
10660;DHT22;5378;53.206;13.316;2023-03-23T04:50:28;11.20;99.90
10660;DHT22;5378;53.206;13.316;2023-03-23T04:53:21;11.20;99.90
10660;DHT22;5378;53.206;13.316;2023-03-23T04:56:07;11.20;99.90
10660;DHT22;5378;53.206;13.316;2023-03-23T04:59:00;11.20;99.90
10660;DHT22;5378;53.206;13.316;2023-03-23T05:01:57;11.20;99.90
10660;DHT22;5378;53.206;13.316;2023-03-23T05:04:44;11.10;99.90
10660;DHT22;5378;53.206;13.316;2023-03-23T05:07:38;11.20;99.90
10660;DHT22;5378;53.206;13.316;2023-03-23T05:10:25;11.20;99.90
10660;DHT22;5378;53.206;13.316;2023-03-23T05:13:16;11.10;99.90
10660;DHT22;5378;53.206;13.316;2023-03-23T05:16:06;11.10;99.90
10660;DHT22;5378;53.206;13.316;2023-03-23T05:18:55;11.10;99.90
10660;DHT22;5378;53.206;13.316;2023-03-23T05:21:42;11.10;99.90
10660;DHT22;5378;53.206;13.316;2023-03-23T05:24:29;11.20;99.90
10660;DHT22;5378;53.206;13.316;2023-03-23T05:27:20;11.20;99.90
10660;DHT22;5378;53.206;13.316;2023-03-23T05:30:08;11.20;99.90
10660;DHT22;5378;53.206;13.316;2023-03-23T05:32:57;11.10;99.90
10660;DHT22;5378;53.206;13.316;2023-03-23T05:35:58;11.10;99.90
10660;DHT22;5378;53.206;13.316;2023-03-23T05:38:51;11.10;99.90
10660;DHT22;5378;53.206;13.316;2023-03-23T05:41:38;11.20;99.90
10660;DHT22;5378;53.206;13.316;2023-03-23T05:44:26;11.20;99.90
10660;DHT22;5378;53.206;13.316;2023-03-23T05:47:15;11.20;99.90
10660;DHT22;5378;53.206;13.316;2023-03-23T05:50:09;11.10;99.90
10660;DHT22;5378;53.206;13.316;2023-03-23T05:52:56;11.10;99.90
10660;DHT22;5378;53.206;13.316;2023-03-23T05:55:43;11.10;99.90
10660;DHT22;5378;53.206;13.316;2023-03-23T05:58:40;11.20;99.90
10660;DHT22;5378;53.206;13.316;2023-03-23T06:01:28;11.20;99.90
10660;DHT22;5378;53.206;13.316;2023-03-23T06:04:14;11.10;99.90
10660;DHT22;5378;53.206;13.316;2023-03-23T06:07:15;11.10;99.90
10660;DHT22;5378;53.206;13.316;2023-03-23T06:10:12;11.10;99.90
10660;DHT22;5378;53.206;13.316;2023-03-23T06:13:02;11.20;99.90
10660;DHT22;5378;53.206;13.316;2023-03-23T06:15:59;11.20;99.90
10660;DHT22;5378;53.206;13.316;2023-03-23T06:19:05;11.20;99.90
10660;DHT22;5378;53.206;13.316;2023-03-23T06:21:54;11.20;99.90
10660;DHT22;5378;53.206;13.316;2023-03-23T06:25:00;11.20;99.90
10660;DHT22;5378;53.206;13.316;2023-03-23T06:27:53;11.30;99.90
10660;DHT22;5378;53.206;13.316;2023-03-23T06:30:40;11.30;99.90
10660;DHT22;5378;53.206;13.316;2023-03-23T06:33:26;11.30;99.90
10660;DHT22;5378;53.206;13.316;2023-03-23T06:36:37;11.30;99.90
10660;DHT22;5378;53.206;13.316;2023-03-23T06:39:31;11.30;99.90
10660;DHT22;5378;53.206;13.316;2023-03-23T06:42:36;11.20;99.90
10660;DHT22;5378;53.206;13.316;2023-03-23T06:45:41;11.30;99.90
10660;DHT22;5378;53.206;13.316;2023-03-23T06:48:53;11.30;99.90
10660;DHT22;5378;53.206;13.316;2023-03-23T06:51:48;11.30;99.90
10660;DHT22;5378;53.206;13.316;2023-03-23T06:54:35;11.40;99.90
10660;DHT22;5378;53.206;13.316;2023-03-23T06:57:22;11.40;99.90
10660;DHT22;5378;53.206;13.316;2023-03-23T07:00:11;11.40;99.90
10660;DHT22;5378;53.206;13.316;2023-03-23T07:03:00;11.40;99.90
10660;DHT22;5378;53.206;13.316;2023-03-23T07:05:48;11.40;99.90
10660;DHT22;5378;53.206;13.316;2023-03-23T07:08:39;11.40;99.90
10660;DHT22;5378;53.206;13.316;2023-03-23T07:11:30;11.40;99.90
10660;DHT22;5378;53.206;13.316;2023-03-23T07:14:20;11.30;99.90
10660;DHT22;5378;53.206;13.316;2023-03-23T07:17:07;11.30;99.90
10660;DHT22;5378;53.206;13.316;2023-03-23T07:19:58;11.40;99.90
10660;DHT22;5378;53.206;13.316;2023-03-23T07:22:45;11.50;99.90
10660;DHT22;5378;53.206;13.316;2023-03-23T07:26:10;11.60;99.90
10660;DHT22;5378;53.206;13.316;2023-03-23T07:29:11;11.60;99.90
10660;DHT22;5378;53.206;13.316;2023-03-23T07:32:01;11.70;99.90
10660;DHT22;5378;53.206;13.316;2023-03-23T07:34:47;11.80;99.90
10660;DHT22;5378;53.206;13.316;2023-03-23T07:37:51;11.90;99.90
10660;DHT22;5378;53.206;13.316;2023-03-23T07:40:39;12.00;99.90
10660;DHT22;5378;53.206;13.316;2023-03-23T07:43:37;12.00;99.90
10660;DHT22;5378;53.206;13.316;2023-03-23T07:46:30;12.00;99.90
10660;DHT22;5378;53.206;13.316;2023-03-23T07:49:29;12.20;99.90
10660;DHT22;5378;53.206;13.316;2023-03-23T07:52:27;12.30;99.90
10660;DHT22;5378;53.206;13.316;2023-03-23T07:55:13;12.40;99.90
10660;DHT22;5378;53.206;13.316;2023-03-23T07:58:31;12.30;99.90
10660;DHT22;5378;53.206;13.316;2023-03-23T08:01:18;12.20;99.90
10660;DHT22;5378;53.206;13.316;2023-03-23T08:04:23;12.20;99.90
10660;DHT22;5378;53.206;13.316;2023-03-23T08:07:34;12.20;99.90
10660;DHT22;5378;53.206;13.316;2023-03-23T08:10:43;12.30;99.90
10660;DHT22;5378;53.206;13.316;2023-03-23T08:13:42;12.40;99.90
10660;DHT22;5378;53.206;13.316;2023-03-23T08:16:50;12.40;99.90
10660;DHT22;5378;53.206;13.316;2023-03-23T08:19:52;12.40;99.90
10660;DHT22;5378;53.206;13.316;2023-03-23T08:22:53;12.60;99.90
10660;DHT22;5378;53.206;13.316;2023-03-23T08:25:49;12.60;99.90
10660;DHT22;5378;53.206;13.316;2023-03-23T08:28:38;12.70;99.90
10660;DHT22;5378;53.206;13.316;2023-03-23T08:31:51;12.70;99.90
10660;DHT22;5378;53.206;13.316;2023-03-23T08:34:52;12.80;99.90
10660;DHT22;5378;53.206;13.316;2023-03-23T08:37:57;12.90;99.90
10660;DHT22;5378;53.206;13.316;2023-03-23T08:41:04;13.00;99.90
10660;DHT22;5378;53.206;13.316;2023-03-23T08:44:11;13.00;99.90
10660;DHT22;5378;53.206;13.316;2023-03-23T08:47:24;13.20;99.90
10660;DHT22;5378;53.206;13.316;2023-03-23T08:50:29;13.30;99.90
10660;DHT22;5378;53.206;13.316;2023-03-23T08:53:28;14.30;99.90
10660;DHT22;5378;53.206;13.316;2023-03-23T08:56:34;15.70;99.90
10660;DHT22;5378;53.206;13.316;2023-03-23T08:59:42;16.90;99.90
10660;DHT22;5378;53.206;13.316;2023-03-23T09:02:38;17.50;99.90
10660;DHT22;5378;53.206;13.316;2023-03-23T09:05:32;17.90;99.90
10660;DHT22;5378;53.206;13.316;2023-03-23T09:08:37;18.00;99.90
10660;DHT22;5378;53.206;13.316;2023-03-23T09:11:23;17.70;99.90
10660;DHT22;5378;53.206;13.316;2023-03-23T09:14:10;17.60;99.90
10660;DHT22;5378;53.206;13.316;2023-03-23T09:16:57;17.70;99.90
10660;DHT22;5378;53.206;13.316;2023-03-23T09:19:44;17.90;99.90
10660;DHT22;5378;53.206;13.316;2023-03-23T09:22:30;18.30;99.90
10660;DHT22;5378;53.206;13.316;2023-03-23T09:25:19;18.60;99.90
10660;DHT22;5378;53.206;13.316;2023-03-23T09:28:07;18.70;99.90
10660;DHT22;5378;53.206;13.316;2023-03-23T09:30:54;18.30;99.90
10660;DHT22;5378;53.206;13.316;2023-03-23T09:33:41;18.20;99.90
10660;DHT22;5378;53.206;13.316;2023-03-23T09:36:30;18.20;99.90
10660;DHT22;5378;53.206;13.316;2023-03-23T09:39:16;18.10;99.90
10660;DHT22;5378;53.206;13.316;2023-03-23T09:42:14;17.80;99.90
10660;DHT22;5378;53.206;13.316;2023-03-23T09:45:09;17.50;99.90
10660;DHT22;5378;53.206;13.316;2023-03-23T09:48:16;17.20;99.90
10660;DHT22;5378;53.206;13.316;2023-03-23T09:51:14;16.80;99.90
10660;DHT22;5378;53.206;13.316;2023-03-23T09:54:09;16.30;99.90
10660;DHT22;5378;53.206;13.316;2023-03-23T09:56:59;16.20;99.90
10660;DHT22;5378;53.206;13.316;2023-03-23T09:59:50;16.20;99.90
10660;DHT22;5378;53.206;13.316;2023-03-23T10:02:43;16.20;99.90
10660;DHT22;5378;53.206;13.316;2023-03-23T10:05:33;16.30;99.90
10660;DHT22;5378;53.206;13.316;2023-03-23T10:08:22;16.50;99.90
10660;DHT22;5378;53.206;13.316;2023-03-23T10:11:14;16.70;99.90
10660;DHT22;5378;53.206;13.316;2023-03-23T10:14:13;16.80;99.90
10660;DHT22;5378;53.206;13.316;2023-03-23T10:17:04;16.80;99.90
10660;DHT22;5378;53.206;13.316;2023-03-23T10:20:00;16.80;99.90
10660;DHT22;5378;53.206;13.316;2023-03-23T10:22:53;16.80;99.90
10660;DHT22;5378;53.206;13.316;2023-03-23T10:25:45;16.80;99.90
10660;DHT22;5378;53.206;13.316;2023-03-23T10:28:41;16.80;99.90
10660;DHT22;5378;53.206;13.316;2023-03-23T10:31:31;16.80;99.90
10660;DHT22;5378;53.206;13.316;2023-03-23T10:34:22;16.90;99.90
10660;DHT22;5378;53.206;13.316;2023-03-23T10:37:12;17.10;99.90
10660;DHT22;5378;53.206;13.316;2023-03-23T10:40:00;17.10;99.90
10660;DHT22;5378;53.206;13.316;2023-03-23T10:42:47;17.10;99.90
10660;DHT22;5378;53.206;13.316;2023-03-23T10:45:34;17.10;99.90
10660;DHT22;5378;53.206;13.316;2023-03-23T10:48:26;17.00;99.90
10660;DHT22;5378;53.206;13.316;2023-03-23T10:51:13;17.00;99.90
10660;DHT22;5378;53.206;13.316;2023-03-23T10:54:04;17.00;99.90
10660;DHT22;5378;53.206;13.316;2023-03-23T10:56:51;17.10;99.90
10660;DHT22;5378;53.206;13.316;2023-03-23T10:59:40;16.90;99.90
10660;DHT22;5378;53.206;13.316;2023-03-23T11:02:27;17.00;99.90
10660;DHT22;5378;53.206;13.316;2023-03-23T11:05:18;17.00;99.90
10660;DHT22;5378;53.206;13.316;2023-03-23T11:08:11;17.10;99.90
10660;DHT22;5378;53.206;13.316;2023-03-23T11:11:07;17.10;99.90
10660;DHT22;5378;53.206;13.316;2023-03-23T11:13:58;17.10;99.90
10660;DHT22;5378;53.206;13.316;2023-03-23T11:16:50;17.00;99.90
10660;DHT22;5378;53.206;13.316;2023-03-23T11:19:38;16.80;99.90
10660;DHT22;5378;53.206;13.316;2023-03-23T11:22:26;16.80;99.90
10660;DHT22;5378;53.206;13.316;2023-03-23T11:25:13;17.00;99.90
10660;DHT22;5378;53.206;13.316;2023-03-23T11:28:01;17.00;99.90
10660;DHT22;5378;53.206;13.316;2023-03-23T11:30:47;16.90;99.90
10660;DHT22;5378;53.206;13.316;2023-03-23T11:33:38;17.00;99.90
10660;DHT22;5378;53.206;13.316;2023-03-23T11:36:31;16.70;99.90
10660;DHT22;5378;53.206;13.316;2023-03-23T11:39:21;16.90;99.90
10660;DHT22;5378;53.206;13.316;2023-03-23T11:42:12;16.90;99.90
10660;DHT22;5378;53.206;13.316;2023-03-23T11:45:13;17.00;99.90
10660;DHT22;5378;53.206;13.316;2023-03-23T11:48:11;17.10;99.90
10660;DHT22;5378;53.206;13.316;2023-03-23T11:51:02;17.10;99.90
10660;DHT22;5378;53.206;13.316;2023-03-23T11:53:54;17.10;99.90
10660;DHT22;5378;53.206;13.316;2023-03-23T11:56:43;16.80;99.90
10660;DHT22;5378;53.206;13.316;2023-03-23T11:59:32;16.60;99.90
10660;DHT22;5378;53.206;13.316;2023-03-23T12:02:34;16.30;99.90
10660;DHT22;5378;53.206;13.316;2023-03-23T12:05:40;16.20;99.90
10660;DHT22;5378;53.206;13.316;2023-03-23T12:08:45;16.10;99.90
10660;DHT22;5378;53.206;13.316;2023-03-23T12:11:41;16.00;99.90
10660;DHT22;5378;53.206;13.316;2023-03-23T12:14:33;15.80;99.90
10660;DHT22;5378;53.206;13.316;2023-03-23T12:17:29;15.70;99.90
10660;DHT22;5378;53.206;13.316;2023-03-23T12:20:30;15.80;99.90
10660;DHT22;5378;53.206;13.316;2023-03-23T12:23:24;16.00;99.90
10660;DHT22;5378;53.206;13.316;2023-03-23T12:26:18;16.00;99.90
10660;DHT22;5378;53.206;13.316;2023-03-23T12:29:31;16.10;99.90
10660;DHT22;5378;53.206;13.316;2023-03-23T12:35:43;16.30;99.90
10660;DHT22;5378;53.206;13.316;2023-03-23T12:38:48;16.30;99.90
10660;DHT22;5378;53.206;13.316;2023-03-23T12:41:41;16.30;99.90
10660;DHT22;5378;53.206;13.316;2023-03-23T12:44:35;16.40;99.90
10660;DHT22;5378;53.206;13.316;2023-03-23T12:47:34;16.50;99.90
10660;DHT22;5378;53.206;13.316;2023-03-23T12:50:26;16.60;99.90
10660;DHT22;5378;53.206;13.316;2023-03-23T12:53:17;16.70;99.90
10660;DHT22;5378;53.206;13.316;2023-03-23T12:56:11;16.80;99.90
10660;DHT22;5378;53.206;13.316;2023-03-23T12:59:03;17.00;99.90
10660;DHT22;5378;53.206;13.316;2023-03-23T13:01:57;17.20;99.90
10660;DHT22;5378;53.206;13.316;2023-03-23T13:04:46;17.30;99.90
10660;DHT22;5378;53.206;13.316;2023-03-23T13:10:40;17.20;99.90
10660;DHT22;5378;53.206;13.316;2023-03-23T13:13:41;17.10;99.90
10660;DHT22;5378;53.206;13.316;2023-03-23T13:16:34;17.10;99.90
10660;DHT22;5378;53.206;13.316;2023-03-23T13:19:28;17.10;99.90
10660;DHT22;5378;53.206;13.316;2023-03-23T13:22:18;17.20;99.90
10660;DHT22;5378;53.206;13.316;2023-03-23T13:25:13;16.80;99.90
10660;DHT22;5378;53.206;13.316;2023-03-23T13:27:59;16.50;99.90
10660;DHT22;5378;53.206;13.316;2023-03-23T13:30:54;16.10;99.90
10660;DHT22;5378;53.206;13.316;2023-03-23T13:33:46;15.00;99.90
10660;DHT22;5378;53.206;13.316;2023-03-23T13:36:38;14.10;99.90
10660;DHT22;5378;53.206;13.316;2023-03-23T13:39:27;13.50;99.90
10660;DHT22;5378;53.206;13.316;2023-03-23T13:42:19;13.10;99.90
10660;DHT22;5378;53.206;13.316;2023-03-23T13:45:18;12.90;99.90
10660;DHT22;5378;53.206;13.316;2023-03-23T13:48:19;12.60;99.90
10660;DHT22;5378;53.206;13.316;2023-03-23T13:51:24;12.50;99.90
10660;DHT22;5378;53.206;13.316;2023-03-23T13:54:24;12.40;99.90
10660;DHT22;5378;53.206;13.316;2023-03-23T13:57:33;12.50;99.90
10660;DHT22;5378;53.206;13.316;2023-03-23T14:00:44;12.80;99.90
10660;DHT22;5378;53.206;13.316;2023-03-23T14:03:36;13.10;99.90
10660;DHT22;5378;53.206;13.316;2023-03-23T14:06:23;13.40;99.90
10660;DHT22;5378;53.206;13.316;2023-03-23T14:09:37;13.50;99.90
10660;DHT22;5378;53.206;13.316;2023-03-23T14:12:27;13.60;99.90
10660;DHT22;5378;53.206;13.316;2023-03-23T14:15:14;13.60;99.90
10660;DHT22;5378;53.206;13.316;2023-03-23T14:18:03;13.50;99.90
10660;DHT22;5378;53.206;13.316;2023-03-23T14:20:49;13.40;99.90
10660;DHT22;5378;53.206;13.316;2023-03-23T14:23:35;13.40;99.90
10660;DHT22;5378;53.206;13.316;2023-03-23T14:26:23;13.40;99.90
10660;DHT22;5378;53.206;13.316;2023-03-23T14:29:11;13.40;99.90
10660;DHT22;5378;53.206;13.316;2023-03-23T14:31:58;13.40;99.90
10660;DHT22;5378;53.206;13.316;2023-03-23T14:34:47;13.30;99.90
10660;DHT22;5378;53.206;13.316;2023-03-23T14:37:33;13.30;99.90
10660;DHT22;5378;53.206;13.316;2023-03-23T14:40:21;13.50;99.90
10660;DHT22;5378;53.206;13.316;2023-03-23T14:43:10;13.60;99.90
10660;DHT22;5378;53.206;13.316;2023-03-23T14:45:59;13.70;99.90
10660;DHT22;5378;53.206;13.316;2023-03-23T14:48:45;13.60;99.90
10660;DHT22;5378;53.206;13.316;2023-03-23T14:51:31;13.60;99.90
10660;DHT22;5378;53.206;13.316;2023-03-23T14:54:22;13.50;99.90
10660;DHT22;5378;53.206;13.316;2023-03-23T14:57:12;13.50;99.90
10660;DHT22;5378;53.206;13.316;2023-03-23T14:59:59;13.40;99.90
10660;DHT22;5378;53.206;13.316;2023-03-23T15:02:48;13.40;99.90
10660;DHT22;5378;53.206;13.316;2023-03-23T15:05:36;13.40;99.90
10660;DHT22;5378;53.206;13.316;2023-03-23T15:08:26;13.40;99.90
10660;DHT22;5378;53.206;13.316;2023-03-23T15:11:23;13.40;99.90
10660;DHT22;5378;53.206;13.316;2023-03-23T15:14:16;13.30;99.90
10660;DHT22;5378;53.206;13.316;2023-03-23T15:17:04;13.30;99.90
10660;DHT22;5378;53.206;13.316;2023-03-23T15:19:51;13.30;99.90
10660;DHT22;5378;53.206;13.316;2023-03-23T15:22:45;13.30;99.90
10660;DHT22;5378;53.206;13.316;2023-03-23T15:25:34;13.30;99.90
10660;DHT22;5378;53.206;13.316;2023-03-23T15:28:30;13.40;99.90
10660;DHT22;5378;53.206;13.316;2023-03-23T15:31:16;13.50;99.90
10660;DHT22;5378;53.206;13.316;2023-03-23T15:34:05;13.50;99.90
10660;DHT22;5378;53.206;13.316;2023-03-23T15:36:58;13.50;99.90
10660;DHT22;5378;53.206;13.316;2023-03-23T15:39:46;13.30;99.90
10660;DHT22;5378;53.206;13.316;2023-03-23T15:42:34;13.20;99.90
10660;DHT22;5378;53.206;13.316;2023-03-23T15:45:26;13.10;99.90
10660;DHT22;5378;53.206;13.316;2023-03-23T15:48:12;13.00;99.90
10660;DHT22;5378;53.206;13.316;2023-03-23T15:51:02;12.90;99.90
10660;DHT22;5378;53.206;13.316;2023-03-23T15:53:50;12.90;99.90
10660;DHT22;5378;53.206;13.316;2023-03-23T15:56:36;12.80;99.90
10660;DHT22;5378;53.206;13.316;2023-03-23T15:59:23;12.70;99.90
10660;DHT22;5378;53.206;13.316;2023-03-23T16:02:17;12.60;99.90
10660;DHT22;5378;53.206;13.316;2023-03-23T16:05:06;12.60;99.90
10660;DHT22;5378;53.206;13.316;2023-03-23T16:07:54;12.70;99.90
10660;DHT22;5378;53.206;13.316;2023-03-23T16:10:41;12.70;99.90
10660;DHT22;5378;53.206;13.316;2023-03-23T16:13:29;12.70;99.90
10660;DHT22;5378;53.206;13.316;2023-03-23T16:16:18;12.70;99.90
10660;DHT22;5378;53.206;13.316;2023-03-23T16:19:08;12.60;99.90
10660;DHT22;5378;53.206;13.316;2023-03-23T16:21:57;12.50;99.90
10660;DHT22;5378;53.206;13.316;2023-03-23T16:24:45;12.50;99.90
10660;DHT22;5378;53.206;13.316;2023-03-23T16:27:32;12.50;99.90
10660;DHT22;5378;53.206;13.316;2023-03-23T16:30:21;12.30;99.90
10660;DHT22;5378;53.206;13.316;2023-03-23T16:33:08;12.40;99.90
10660;DHT22;5378;53.206;13.316;2023-03-23T16:35:55;12.40;99.90
10660;DHT22;5378;53.206;13.316;2023-03-23T16:38:43;12.40;99.90
10660;DHT22;5378;53.206;13.316;2023-03-23T16:41:31;12.40;99.90
10660;DHT22;5378;53.206;13.316;2023-03-23T16:44:18;12.40;99.90
10660;DHT22;5378;53.206;13.316;2023-03-23T16:47:05;12.40;99.90
10660;DHT22;5378;53.206;13.316;2023-03-23T16:49:52;12.40;99.90
10660;DHT22;5378;53.206;13.316;2023-03-23T16:52:40;12.40;99.90
10660;DHT22;5378;53.206;13.316;2023-03-23T16:55:29;12.30;99.90
10660;DHT22;5378;53.206;13.316;2023-03-23T16:58:18;12.40;99.90
10660;DHT22;5378;53.206;13.316;2023-03-23T17:01:06;12.30;99.90
10660;DHT22;5378;53.206;13.316;2023-03-23T17:03:53;12.30;99.90
10660;DHT22;5378;53.206;13.316;2023-03-23T17:06:40;12.30;99.90
10660;DHT22;5378;53.206;13.316;2023-03-23T17:09:28;12.30;99.90
10660;DHT22;5378;53.206;13.316;2023-03-23T17:12:16;12.20;99.90
10660;DHT22;5378;53.206;13.316;2023-03-23T17:15:06;12.20;99.90
10660;DHT22;5378;53.206;13.316;2023-03-23T17:17:54;12.10;99.90
10660;DHT22;5378;53.206;13.316;2023-03-23T17:20:41;12.10;99.90
10660;DHT22;5378;53.206;13.316;2023-03-23T17:23:28;12.20;99.90
10660;DHT22;5378;53.206;13.316;2023-03-23T17:26:15;12.20;99.90
10660;DHT22;5378;53.206;13.316;2023-03-23T17:29:02;12.20;99.90
10660;DHT22;5378;53.206;13.316;2023-03-23T17:31:51;12.10;99.90
10660;DHT22;5378;53.206;13.316;2023-03-23T17:34:38;12.00;99.90
10660;DHT22;5378;53.206;13.316;2023-03-23T17:37:25;12.00;99.90
10660;DHT22;5378;53.206;13.316;2023-03-23T17:40:12;11.90;99.90
10660;DHT22;5378;53.206;13.316;2023-03-23T17:43:00;11.90;99.90
10660;DHT22;5378;53.206;13.316;2023-03-23T17:45:47;11.90;99.90
10660;DHT22;5378;53.206;13.316;2023-03-23T17:48:35;11.80;99.90
10660;DHT22;5378;53.206;13.316;2023-03-23T17:51:22;11.80;99.90
10660;DHT22;5378;53.206;13.316;2023-03-23T17:54:10;11.80;99.90
10660;DHT22;5378;53.206;13.316;2023-03-23T17:56:57;11.80;99.90
10660;DHT22;5378;53.206;13.316;2023-03-23T17:59:46;11.80;99.90
10660;DHT22;5378;53.206;13.316;2023-03-23T18:02:33;11.80;99.90
10660;DHT22;5378;53.206;13.316;2023-03-23T18:05:21;11.60;99.90
10660;DHT22;5378;53.206;13.316;2023-03-23T18:08:09;11.60;99.90
10660;DHT22;5378;53.206;13.316;2023-03-23T18:10:57;11.50;99.90
10660;DHT22;5378;53.206;13.316;2023-03-23T18:13:44;11.40;99.90
10660;DHT22;5378;53.206;13.316;2023-03-23T18:16:31;11.30;99.90